sensor_id;sensor_type;location;lat;lon;timestamp;pressure;altitude;pressure_sealevel;temperature;humidity
53715;BME280;39608;55.630;37.864;2023-04-10T00:01:56;100408.81;;;9.98;38.86
53715;BME280;39608;55.630;37.864;2023-04-10T00:06:59;100404.50;;;10.07;38.58
53715;BME280;39608;55.630;37.864;2023-04-10T00:12:01;100398.78;;;9.99;38.58
53715;BME280;39608;55.630;37.864;2023-04-10T00:17:03;100400.41;;;10.00;38.53
53715;BME280;39608;55.630;37.864;2023-04-10T00:22:07;100403.69;;;10.02;38.54
53715;BME280;39608;55.630;37.864;2023-04-10T00:27:09;100406.09;;;9.98;38.37
53715;BME280;39608;55.630;37.864;2023-04-10T00:32:11;100408.00;;;9.92;38.48
53715;BME280;39608;55.630;37.864;2023-04-10T00:37:14;100409.06;;;9.86;38.70
53715;BME280;39608;55.630;37.864;2023-04-10T00:42:17;100416.94;;;9.88;38.73
53715;BME280;39608;55.630;37.864;2023-04-10T00:47:19;100423.44;;;9.92;38.87
53715;BME280;39608;55.630;37.864;2023-04-10T00:52:23;100414.78;;;9.95;39.04
53715;BME280;39608;55.630;37.864;2023-04-10T00:57:26;100410.97;;;9.91;38.88
53715;BME280;39608;55.630;37.864;2023-04-10T01:02:28;100412.06;;;9.95;38.47
53715;BME280;39608;55.630;37.864;2023-04-10T01:07:46;100393.66;;;9.92;38.47
53715;BME280;39608;55.630;37.864;2023-04-10T01:12:55;100398.00;;;10.03;38.68
53715;BME280;39608;55.630;37.864;2023-04-10T01:18:03;100394.19;;;9.94;38.49
53715;BME280;39608;55.630;37.864;2023-04-10T01:23:41;100399.34;;;10.06;38.25
53715;BME280;39608;55.630;37.864;2023-04-10T01:28:53;100402.06;;;10.01;38.72
53715;BME280;39608;55.630;37.864;2023-04-10T01:34:03;100391.44;;;9.89;38.68
53715;BME280;39608;55.630;37.864;2023-04-10T01:39:07;100402.59;;;9.98;38.78
53715;BME280;39608;55.630;37.864;2023-04-10T01:44:13;100403.66;;;9.97;39.13
53715;BME280;39608;55.630;37.864;2023-04-10T01:49:17;100410.97;;;9.91;38.95
53715;BME280;39608;55.630;37.864;2023-04-10T01:54:19;100415.31;;;9.92;39.21
53715;BME280;39608;55.630;37.864;2023-04-10T01:59:23;100400.38;;;9.84;39.33
53715;BME280;39608;55.630;37.864;2023-04-10T02:04:25;100409.88;;;9.97;39.10
53715;BME280;39608;55.630;37.864;2023-04-10T02:09:32;100376.81;;;9.85;39.44
53715;BME280;39608;55.630;37.864;2023-04-10T02:14:41;100404.75;;;10.11;39.07
53715;BME280;39608;55.630;37.864;2023-04-10T02:19:45;100396.91;;;10.09;39.13
53715;BME280;39608;55.630;37.864;2023-04-10T02:24:48;100408.28;;;9.96;39.18
53715;BME280;39608;55.630;37.864;2023-04-10T02:29:52;100418.53;;;9.89;39.29
53715;BME280;39608;55.630;37.864;2023-04-10T02:34:54;100413.41;;;9.82;39.62
53715;BME280;39608;55.630;37.864;2023-04-10T02:39:57;100408.22;;;9.70;39.34
53715;BME280;39608;55.630;37.864;2023-04-10T02:45:00;100414.97;;;9.68;39.98
53715;BME280;39608;55.630;37.864;2023-04-10T02:50:04;100411.16;;;9.64;40.01
53715;BME280;39608;55.630;37.864;2023-04-10T02:55:07;100410.09;;;9.65;40.05
53715;BME280;39608;55.630;37.864;2023-04-10T03:00:11;100422.56;;;9.71;40.03
53715;BME280;39608;55.630;37.864;2023-04-10T03:05:13;100424.47;;;9.75;39.97
53715;BME280;39608;55.630;37.864;2023-04-10T03:10:16;100430.47;;;9.83;40.18
53715;BME280;39608;55.630;37.864;2023-04-10T03:15:19;100424.22;;;9.87;39.83
53715;BME280;39608;55.630;37.864;2023-04-10T03:20:21;100425.34;;;9.86;40.14
53715;BME280;39608;55.630;37.864;2023-04-10T03:25:23;100416.94;;;9.88;39.88
53715;BME280;39608;55.630;37.864;2023-04-10T03:30:26;100418.00;;;9.87;40.34
53715;BME280;39608;55.630;37.864;2023-04-10T03:35:28;100424.50;;;9.86;40.25
53715;BME280;39608;55.630;37.864;2023-04-10T03:40:30;100412.03;;;9.85;40.22
53715;BME280;39608;55.630;37.864;2023-04-10T03:45:35;100411.53;;;10.03;40.10
53715;BME280;39608;55.630;37.864;2023-04-10T03:50:37;100415.34;;;10.18;40.08
53715;BME280;39608;55.630;37.864;2023-04-10T03:55:39;100405.09;;;10.35;39.95
53715;BME280;39608;55.630;37.864;2023-04-10T04:00:42;100411.31;;;10.56;39.89
53715;BME280;39608;55.630;37.864;2023-04-10T04:05:44;100407.50;;;10.68;39.65
53715;BME280;39608;55.630;37.864;2023-04-10T04:10:46;100412.13;;;10.77;40.04
53715;BME280;39608;55.630;37.864;2023-04-10T04:15:49;100407.22;;;10.85;40.06
53715;BME280;39608;55.630;37.864;2023-04-10T04:20:52;100410.72;;;10.95;39.84
53715;BME280;39608;55.630;37.864;2023-04-10T04:25:55;100405.81;;;11.03;40.34
53715;BME280;39608;55.630;37.864;2023-04-10T04:31:00;100411.22;;;11.13;40.25
53715;BME280;39608;55.630;37.864;2023-04-10T04:36:02;100415.84;;;11.12;40.37
53715;BME280;39608;55.630;37.864;2023-04-10T04:41:05;100410.63;;;11.26;40.23
53715;BME280;39608;55.630;37.864;2023-04-10T04:46:08;100416.22;;;11.51;40.08
53715;BME280;39608;55.630;37.864;2023-04-10T04:51:10;100416.50;;;12.04;39.77
53715;BME280;39608;55.630;37.864;2023-04-10T04:56:12;100400.53;;;12.91;38.60
53715;BME280;39608;55.630;37.864;2023-04-10T05:01:16;100415.47;;;13.85;37.58
53715;BME280;39608;55.630;37.864;2023-04-10T05:06:18;100420.06;;;14.61;36.13
53715;BME280;39608;55.630;37.864;2023-04-10T05:11:20;100421.66;;;15.50;35.21
53715;BME280;39608;55.630;37.864;2023-04-10T05:16:26;100429.53;;;16.39;34.35
53715;BME280;39608;55.630;37.864;2023-04-10T05:21:28;100427.22;;;16.77;33.68
53715;BME280;39608;55.630;37.864;2023-04-10T05:26:30;100427.97;;;17.01;33.24
53715;BME280;39608;55.630;37.864;2023-04-10T05:31:34;100427.19;;;17.40;32.82
53715;BME280;39608;55.630;37.864;2023-04-10T05:36:36;100424.94;;;17.51;32.22
53715;BME280;39608;55.630;37.864;2023-04-10T05:41:38;100442.56;;;17.68;32.31
53715;BME280;39608;55.630;37.864;2023-04-10T05:46:41;100444.75;;;17.39;32.87
53715;BME280;39608;55.630;37.864;2023-04-10T05:51:43;100441.06;;;16.81;33.04
53715;BME280;39608;55.630;37.864;2023-04-10T05:56:49;100432.34;;;15.88;34.24
53715;BME280;39608;55.630;37.864;2023-04-10T06:01:53;100440.47;;;15.66;34.87
53715;BME280;39608;55.630;37.864;2023-04-10T06:06:55;100437.75;;;15.66;34.32
53715;BME280;39608;55.630;37.864;2023-04-10T06:11:57;100434.41;;;15.55;34.54
53715;BME280;39608;55.630;37.864;2023-04-10T06:17:02;100437.63;;;15.85;34.06
53715;BME280;39608;55.630;37.864;2023-04-10T06:22:04;100445.59;;;16.54;32.62
53715;BME280;39608;55.630;37.864;2023-04-10T06:27:06;100444.09;;;16.48;32.40
53715;BME280;39608;55.630;37.864;2023-04-10T06:32:09;100440.34;;;16.21;33.05
53715;BME280;39608;55.630;37.864;2023-04-10T06:37:11;100439.06;;;15.82;32.72
53715;BME280;39608;55.630;37.864;2023-04-10T06:42:13;100440.41;;;15.43;33.25
53715;BME280;39608;55.630;37.864;2023-04-10T06:47:17;100449.72;;;15.42;33.59
53715;BME280;39608;55.630;37.864;2023-04-10T06:52:19;100448.78;;;15.33;33.77
53715;BME280;39608;55.630;37.864;2023-04-10T06:57:21;100444.41;;;15.18;33.47
53715;BME280;39608;55.630;37.864;2023-04-10T07:02:24;100451.03;;;15.17;33.81
53715;BME280;39608;55.630;37.864;2023-04-10T07:07:26;100452.75;;;15.27;33.69
53715;BME280;39608;55.630;37.864;2023-04-10T07:12:28;100453.63;;;15.50;33.49
53715;BME280;39608;55.630;37.864;2023-04-10T07:17:32;100454.63;;;15.68;33.22
53715;BME280;39608;55.630;37.864;2023-04-10T07:22:34;100451.91;;;15.68;33.12
53715;BME280;39608;55.630;37.864;2023-04-10T07:27:36;100454.53;;;15.87;32.70
53715;BME280;39608;55.630;37.864;2023-04-10T07:32:39;100440.00;;;16.00;32.62
53715;BME280;39608;55.630;37.864;2023-04-10T07:37:41;100448.00;;;16.11;32.44
53715;BME280;39608;55.630;37.864;2023-04-10T07:42:43;100451.25;;;16.35;32.19
53715;BME280;39608;55.630;37.864;2023-04-10T07:47:47;100456.09;;;16.61;31.96
53715;BME280;39608;55.630;37.864;2023-04-10T07:52:49;100450.19;;;16.45;32.15
53715;BME280;39608;55.630;37.864;2023-04-10T07:57:54;100444.06;;;16.25;32.19
53715;BME280;39608;55.630;37.864;2023-04-10T08:02:57;100442.53;;;16.33;32.49
53715;BME280;39608;55.630;37.864;2023-04-10T08:08:00;100441.53;;;16.29;32.18
53715;BME280;39608;55.630;37.864;2023-04-10T08:13:02;100443.03;;;16.35;31.86
53715;BME280;39608;55.630;37.864;2023-04-10T08:18:05;100451.00;;;16.46;31.86
53715;BME280;39608;55.630;37.864;2023-04-10T08:23:07;100444.06;;;16.03;32.55
53715;BME280;39608;55.630;37.864;2023-04-10T08:28:09;100446.03;;;15.61;33.65
53715;BME280;39608;55.630;37.864;2023-04-10T08:33:12;100445.84;;;15.57;33.96
53715;BME280;39608;55.630;37.864;2023-04-10T08:38:15;100443.22;;;15.80;33.94
53715;BME280;39608;55.630;37.864;2023-04-10T08:43:20;100434.75;;;16.04;34.08
53715;BME280;39608;55.630;37.864;2023-04-10T08:48:27;100446.88;;;16.80;32.68
53715;BME280;39608;55.630;37.864;2023-04-10T08:53:34;100442.50;;;17.01;31.78
53715;BME280;39608;55.630;37.864;2023-04-10T08:58:40;100441.25;;;17.65;30.91
53715;BME280;39608;55.630;37.864;2023-04-10T09:03:46;100421.94;;;18.40;30.56
53715;BME280;39608;55.630;37.864;2023-04-10T09:08:49;100438.66;;;19.00;29.72
53715;BME280;39608;55.630;37.864;2023-04-10T09:13:50;100443.41;;;19.21;29.31
53715;BME280;39608;55.630;37.864;2023-04-10T09:18:54;100447.72;;;18.92;29.46
53715;BME280;39608;55.630;37.864;2023-04-10T09:23:59;100431.72;;;18.68;30.15
53715;BME280;39608;55.630;37.864;2023-04-10T09:29:03;100439.59;;;19.04;29.38
53715;BME280;39608;55.630;37.864;2023-04-10T09:34:11;100424.56;;;19.61;28.18
53715;BME280;39608;55.630;37.864;2023-04-10T09:39:14;100423.34;;;19.80;28.24
53715;BME280;39608;55.630;37.864;2023-04-10T09:44:17;100420.28;;;20.03;27.29
53715;BME280;39608;55.630;37.864;2023-04-10T09:49:21;100416.34;;;20.58;26.25
53715;BME280;39608;55.630;37.864;2023-04-10T09:54:36;100417.75;;;21.35;26.61
53715;BME280;39608;55.630;37.864;2023-04-10T09:59:39;100406.69;;;21.60;24.70
53715;BME280;39608;55.630;37.864;2023-04-10T10:04:45;100397.28;;;20.99;25.54
53715;BME280;39608;55.630;37.864;2023-04-10T10:09:50;100401.69;;;19.99;27.13
53715;BME280;39608;55.630;37.864;2023-04-10T10:14:58;100420.19;;;20.11;27.48
53715;BME280;39608;55.630;37.864;2023-04-10T10:20:04;100406.25;;;19.95;26.92
53715;BME280;39608;55.630;37.864;2023-04-10T10:25:09;100400.34;;;19.25;27.56
53715;BME280;39608;55.630;37.864;2023-04-10T10:30:13;100399.09;;;19.73;27.31
53715;BME280;39608;55.630;37.864;2023-04-10T10:35:19;100401.47;;;20.38;26.34
53715;BME280;39608;55.630;37.864;2023-04-10T10:40:24;100391.88;;;20.90;25.79
53715;BME280;39608;55.630;37.864;2023-04-10T10:45:32;100382.09;;;21.17;25.51
53715;BME280;39608;55.630;37.864;2023-04-10T10:50:50;100387.56;;;22.08;26.75
53715;BME280;39608;55.630;37.864;2023-04-10T10:55:54;100382.78;;;21.92;24.74
53715;BME280;39608;55.630;37.864;2023-04-10T11:01:05;100374.94;;;22.22;24.85
53715;BME280;39608;55.630;37.864;2023-04-10T11:06:14;100376.38;;;22.45;24.09
53715;BME280;39608;55.630;37.864;2023-04-10T11:11:19;100373.13;;;21.58;24.62
53715;BME280;39608;55.630;37.864;2023-04-10T11:22:02;100377.13;;;21.48;25.59
53715;BME280;39608;55.630;37.864;2023-04-10T11:27:05;100362.75;;;20.22;26.13
53715;BME280;39608;55.630;37.864;2023-04-10T11:32:08;100360.06;;;19.50;26.72
53715;BME280;39608;55.630;37.864;2023-04-10T11:37:21;100359.81;;;20.06;26.83
53715;BME280;39608;55.630;37.864;2023-04-10T11:42:23;100365.91;;;20.45;25.56
53715;BME280;39608;55.630;37.864;2023-04-10T11:47:25;100357.38;;;19.92;26.77
53715;BME280;39608;55.630;37.864;2023-04-10T11:52:29;100357.91;;;20.65;25.86
53715;BME280;39608;55.630;37.864;2023-04-10T11:57:33;100348.56;;;21.03;25.34
53715;BME280;39608;55.630;37.864;2023-04-10T12:02:49;100342.28;;;21.43;25.23
53715;BME280;39608;55.630;37.864;2023-04-10T12:07:54;100343.28;;;21.76;24.41
53715;BME280;39608;55.630;37.864;2023-04-10T12:12:56;100340.78;;;21.46;24.79
53715;BME280;39608;55.630;37.864;2023-04-10T12:18:03;100339.66;;;21.59;24.30
53715;BME280;39608;55.630;37.864;2023-04-10T12:23:07;100342.59;;;21.66;24.33
53715;BME280;39608;55.630;37.864;2023-04-10T12:28:16;100341.75;;;20.76;25.37
53715;BME280;39608;55.630;37.864;2023-04-10T12:33:22;100336.81;;;19.69;26.36
53715;BME280;39608;55.630;37.864;2023-04-10T12:38:42;100344.97;;;19.05;27.30
53715;BME280;39608;55.630;37.864;2023-04-10T12:43:44;100357.66;;;17.54;30.36
53715;BME280;39608;55.630;37.864;2023-04-10T12:48:49;100365.34;;;16.00;33.46
53715;BME280;39608;55.630;37.864;2023-04-10T12:53:52;100348.78;;;15.32;34.22
53715;BME280;39608;55.630;37.864;2023-04-10T12:59:05;100355.47;;;15.26;35.35
53715;BME280;39608;55.630;37.864;2023-04-10T13:04:07;100340.63;;;14.90;35.76
53715;BME280;39608;55.630;37.864;2023-04-10T13:09:11;100339.19;;;14.65;36.69
53715;BME280;39608;55.630;37.864;2023-04-10T13:14:13;100350.84;;;14.37;38.20
53715;BME280;39608;55.630;37.864;2023-04-10T13:19:16;100355.34;;;14.28;38.71
53715;BME280;39608;55.630;37.864;2023-04-10T13:24:20;100340.44;;;14.07;39.76
53715;BME280;39608;55.630;37.864;2023-04-10T13:29:22;100350.78;;;14.57;39.50
53715;BME280;39608;55.630;37.864;2023-04-10T13:34:24;100345.16;;;14.81;39.55
53715;BME280;39608;55.630;37.864;2023-04-10T13:39:29;100362.16;;;14.45;40.21
53715;BME280;39608;55.630;37.864;2023-04-10T13:44:37;100359.53;;;14.07;41.31
53715;BME280;39608;55.630;37.864;2023-04-10T13:49:42;100328.47;;;13.50;42.49
53715;BME280;39608;55.630;37.864;2023-04-10T13:54:46;100299.53;;;13.11;42.67
53715;BME280;39608;55.630;37.864;2023-04-10T13:59:48;100329.50;;;13.11;43.63
53715;BME280;39608;55.630;37.864;2023-04-10T14:04:50;100346.53;;;12.98;44.13
53715;BME280;39608;55.630;37.864;2023-04-10T14:09:54;100345.28;;;12.90;44.23
53715;BME280;39608;55.630;37.864;2023-04-10T14:14:56;100352.63;;;12.90;44.28
53715;BME280;39608;55.630;37.864;2023-04-10T14:19:58;100348.22;;;12.94;44.79
53715;BME280;39608;55.630;37.864;2023-04-10T14:25:03;100338.16;;;12.94;44.62
53715;BME280;39608;55.630;37.864;2023-04-10T14:30:07;100315.72;;;12.78;45.01
53715;BME280;39608;55.630;37.864;2023-04-10T14:35:10;100337.44;;;12.83;45.31
53715;BME280;39608;55.630;37.864;2023-04-10T14:40:13;100309.31;;;12.69;45.16
53715;BME280;39608;55.630;37.864;2023-04-10T14:45:16;100317.19;;;12.71;45.21
53715;BME280;39608;55.630;37.864;2023-04-10T14:50:21;100310.78;;;12.56;45.21
53715;BME280;39608;55.630;37.864;2023-04-10T14:55:24;100319.66;;;12.67;44.97
53715;BME280;39608;55.630;37.864;2023-04-10T15:00:27;100307.16;;;12.66;44.93
53715;BME280;39608;55.630;37.864;2023-04-10T15:05:31;100272.47;;;12.53;44.87
53715;BME280;39608;55.630;37.864;2023-04-10T15:10:34;100333.47;;;13.00;44.60
53715;BME280;39608;55.630;37.864;2023-04-10T15:15:37;100315.03;;;12.92;44.27
53715;BME280;39608;55.630;37.864;2023-04-10T15:20:39;100293.84;;;12.89;44.31
53715;BME280;39608;55.630;37.864;2023-04-10T15:25:42;100262.66;;;12.57;43.98
53715;BME280;39608;55.630;37.864;2023-04-10T15:30:45;100305.41;;;12.75;44.05
53715;BME280;39608;55.630;37.864;2023-04-10T15:35:49;100294.03;;;12.73;43.80
53715;BME280;39608;55.630;37.864;2023-04-10T15:40:53;100290.19;;;12.74;43.84
53715;BME280;39608;55.630;37.864;2023-04-10T15:45:57;100263.59;;;12.66;43.96
53715;BME280;39608;55.630;37.864;2023-04-10T15:51:03;100273.84;;;12.74;43.57
53715;BME280;39608;55.630;37.864;2023-04-10T15:56:07;100280.44;;;12.92;43.32
53715;BME280;39608;55.630;37.864;2023-04-10T16:01:09;100264.53;;;12.80;43.24
53715;BME280;39608;55.630;37.864;2023-04-10T16:06:14;100278.59;;;12.88;43.35
53715;BME280;39608;55.630;37.864;2023-04-10T16:11:19;100221.88;;;12.52;43.38
53715;BME280;39608;55.630;37.864;2023-04-10T16:16:22;100265.47;;;12.71;43.59
53715;BME280;39608;55.630;37.864;2023-04-10T16:21:25;100237.69;;;12.49;43.73
53715;BME280;39608;55.630;37.864;2023-04-10T16:26:29;100229.00;;;12.47;43.77
53715;BME280;39608;55.630;37.864;2023-04-10T16:31:31;100259.19;;;12.70;43.48
53715;BME280;39608;55.630;37.864;2023-04-10T16:36:34;100253.25;;;12.68;43.31
53715;BME280;39608;55.630;37.864;2023-04-10T16:41:38;100260.38;;;12.64;43.81
53715;BME280;39608;55.630;37.864;2023-04-10T16:46:40;100258.13;;;12.47;44.23
53715;BME280;39608;55.630;37.864;2023-04-10T16:51:43;100269.59;;;12.44;44.36
53715;BME280;39608;55.630;37.864;2023-04-10T16:56:47;100237.91;;;12.29;44.63
53715;BME280;39608;55.630;37.864;2023-04-10T17:01:50;100218.75;;;12.15;44.78
53715;BME280;39608;55.630;37.864;2023-04-10T17:06:52;100265.28;;;12.38;45.27
53715;BME280;39608;55.630;37.864;2023-04-10T17:11:56;100229.59;;;12.20;45.20
53715;BME280;39608;55.630;37.864;2023-04-10T17:16:59;100252.03;;;12.31;45.65
53715;BME280;39608;55.630;37.864;2023-04-10T17:22:02;100256.38;;;12.32;45.76
53715;BME280;39608;55.630;37.864;2023-04-10T17:27:09;100275.81;;;12.44;45.66
53715;BME280;39608;55.630;37.864;2023-04-10T17:32:19;100227.94;;;11.95;46.00
53715;BME280;39608;55.630;37.864;2023-04-10T17:37:22;100251.41;;;12.10;46.50
53715;BME280;39608;55.630;37.864;2023-04-10T17:42:26;100257.84;;;12.48;45.99
53715;BME280;39608;55.630;37.864;2023-04-10T17:47:29;100239.53;;;12.30;45.99
53715;BME280;39608;55.630;37.864;2023-04-10T17:52:31;100251.84;;;12.22;46.29
53715;BME280;39608;55.630;37.864;2023-04-10T17:57:35;100262.09;;;12.55;46.04
53715;BME280;39608;55.630;37.864;2023-04-10T18:02:37;100255.63;;;12.75;45.88
53715;BME280;39608;55.630;37.864;2023-04-10T18:07:40;100186.69;;;12.36;45.14
53715;BME280;39608;55.630;37.864;2023-04-10T18:12:44;100251.00;;;12.75;45.28
53715;BME280;39608;55.630;37.864;2023-04-10T18:17:46;100231.44;;;12.49;45.48
53715;BME280;39608;55.630;37.864;2023-04-10T18:22:49;100238.53;;;12.45;45.25
53715;BME280;39608;55.630;37.864;2023-04-10T18:27:52;100237.75;;;12.44;45.26
53715;BME280;39608;55.630;37.864;2023-04-10T18:32:54;100236.47;;;12.61;44.99
53715;BME280;39608;55.630;37.864;2023-04-10T18:37:56;100197.53;;;12.41;44.32
53715;BME280;39608;55.630;37.864;2023-04-10T18:43:00;100227.72;;;12.64;44.82
53715;BME280;39608;55.630;37.864;2023-04-10T18:48:02;100220.00;;;12.52;45.96
53715;BME280;39608;55.630;37.864;2023-04-10T18:53:05;100236.88;;;12.73;45.71
53715;BME280;39608;55.630;37.864;2023-04-10T18:58:08;100226.09;;;12.63;45.48
53715;BME280;39608;55.630;37.864;2023-04-10T19:03:11;100228.53;;;12.40;45.41
53715;BME280;39608;55.630;37.864;2023-04-10T19:08:13;100219.75;;;12.24;45.74
53715;BME280;39608;55.630;37.864;2023-04-10T19:13:18;100235.16;;;12.34;45.70
53715;BME280;39608;55.630;37.864;2023-04-10T19:18:20;100232.94;;;12.12;45.83
53715;BME280;39608;55.630;37.864;2023-04-10T19:23:22;100215.16;;;11.90;45.98
53715;BME280;39608;55.630;37.864;2023-04-10T19:28:25;100225.13;;;12.00;46.46
53715;BME280;39608;55.630;37.864;2023-04-10T19:33:27;100225.97;;;12.01;46.06
53715;BME280;39608;55.630;37.864;2023-04-10T19:38:30;100222.25;;;11.86;46.88
53715;BME280;39608;55.630;37.864;2023-04-10T19:43:33;100219.81;;;11.85;46.88
53715;BME280;39608;55.630;37.864;2023-04-10T19:48:35;100215.41;;;11.59;47.61
53715;BME280;39608;55.630;37.864;2023-04-10T19:53:38;100219.72;;;11.26;48.11
53715;BME280;39608;55.630;37.864;2023-04-10T19:58:44;100216.00;;;11.17;48.61
53715;BME280;39608;55.630;37.864;2023-04-10T20:03:46;100206.84;;;11.02;48.58
53715;BME280;39608;55.630;37.864;2023-04-10T20:08:48;100226.38;;;11.09;48.07
53715;BME280;39608;55.630;37.864;2023-04-10T20:13:51;100212.75;;;11.15;48.53
53715;BME280;39608;55.630;37.864;2023-04-10T20:18:54;100209.28;;;11.04;48.22
53715;BME280;39608;55.630;37.864;2023-04-10T20:23:56;100214.00;;;10.83;48.98
53715;BME280;39608;55.630;37.864;2023-04-10T20:29:02;100218.06;;;10.85;49.40
53715;BME280;39608;55.630;37.864;2023-04-10T20:34:05;100218.97;;;10.65;49.42
53715;BME280;39608;55.630;37.864;2023-04-10T20:39:07;100211.44;;;10.52;49.82
53715;BME280;39608;55.630;37.864;2023-04-10T20:44:10;100210.41;;;10.42;50.29
53715;BME280;39608;55.630;37.864;2023-04-10T20:49:12;100213.13;;;10.37;50.66
53715;BME280;39608;55.630;37.864;2023-04-10T20:54:15;100213.38;;;10.41;50.60
53715;BME280;39608;55.630;37.864;2023-04-10T20:59:19;100216.63;;;10.43;50.71
53715;BME280;39608;55.630;37.864;2023-04-10T21:04:22;100214.19;;;10.36;50.82
53715;BME280;39608;55.630;37.864;2023-04-10T21:09:24;100213.09;;;10.32;50.63
53715;BME280;39608;55.630;37.864;2023-04-10T21:14:27;100207.66;;;10.32;50.91
53715;BME280;39608;55.630;37.864;2023-04-10T21:19:30;100216.38;;;10.34;50.67
53715;BME280;39608;55.630;37.864;2023-04-10T21:24:32;100220.69;;;10.25;51.01
53715;BME280;39608;55.630;37.864;2023-04-10T21:29:36;100218.22;;;10.34;51.02
53715;BME280;39608;55.630;37.864;2023-04-10T21:34:38;100209.84;;;10.46;50.93
53715;BME280;39608;55.630;37.864;2023-04-10T21:39:40;100220.06;;;10.59;50.78
53715;BME280;39608;55.630;37.864;2023-04-10T21:44:43;100213.56;;;10.65;50.82
53715;BME280;39608;55.630;37.864;2023-04-10T21:49:45;100211.38;;;10.67;50.04
53715;BME280;39608;55.630;37.864;2023-04-10T21:54:48;100217.06;;;10.71;49.91
53715;BME280;39608;55.630;37.864;2023-04-10T21:59:51;100229.00;;;10.70;50.43
53715;BME280;39608;55.630;37.864;2023-04-10T22:04:53;100213.63;;;10.50;50.58
53715;BME280;39608;55.630;37.864;2023-04-10T22:09:55;100215.00;;;10.42;50.67
53715;BME280;39608;55.630;37.864;2023-04-10T22:14:58;100207.69;;;10.42;50.80
53715;BME280;39608;55.630;37.864;2023-04-10T22:20:00;100206.06;;;10.41;50.62
53715;BME280;39608;55.630;37.864;2023-04-10T22:25:04;100194.41;;;10.41;50.54
53715;BME280;39608;55.630;37.864;2023-04-10T22:30:09;100198.44;;;10.49;50.33
53715;BME280;39608;55.630;37.864;2023-04-10T22:35:11;100185.66;;;10.49;49.92
53715;BME280;39608;55.630;37.864;2023-04-10T22:40:14;100182.66;;;10.56;49.40
53715;BME280;39608;55.630;37.864;2023-04-10T22:45:18;100179.94;;;10.61;49.07
53715;BME280;39608;55.630;37.864;2023-04-10T22:50:20;100182.63;;;10.66;49.02
53715;BME280;39608;55.630;37.864;2023-04-10T22:55:22;100169.31;;;10.70;48.80
53715;BME280;39608;55.630;37.864;2023-04-10T23:00:25;100179.28;;;10.85;48.79
53715;BME280;39608;55.630;37.864;2023-04-10T23:05:27;100172.78;;;10.86;48.41
53715;BME280;39608;55.630;37.864;2023-04-10T23:10:29;100170.09;;;10.75;48.53
53715;BME280;39608;55.630;37.864;2023-04-10T23:15:33;100170.66;;;10.72;49.31
53715;BME280;39608;55.630;37.864;2023-04-10T23:20:35;100175.31;;;10.67;49.20
53715;BME280;39608;55.630;37.864;2023-04-10T23:25:37;100167.22;;;10.56;50.09
53715;BME280;39608;55.630;37.864;2023-04-10T23:30:43;100159.09;;;10.51;50.29
53715;BME280;39608;55.630;37.864;2023-04-10T23:35:45;100172.38;;;10.53;50.12
53715;BME280;39608;55.630;37.864;2023-04-10T23:40:47;100171.31;;;10.49;50.44
53715;BME280;39608;55.630;37.864;2023-04-10T23:45:50;100165.31;;;10.57;49.75
53715;BME280;39608;55.630;37.864;2023-04-10T23:51:01;100162.53;;;10.67;49.26
53715;BME280;39608;55.630;37.864;2023-04-10T23:56:04;100158.22;;;10.66;49.20
